createdAt,value
2017-12-22T00:01:35.497Z,9.93
2017-12-22T00:04:03.791Z,10.30
2017-12-22T00:06:32.054Z,10.80
2017-12-22T00:09:00.320Z,10.40
2017-12-22T00:11:28.105Z,10.13
2017-12-22T00:13:57.176Z,9.23
2017-12-22T00:16:25.733Z,9.90
2017-12-22T00:18:53.236Z,8.03
2017-12-22T00:21:20.756Z,7.73
2017-12-22T00:23:48.296Z,8.43
2017-12-22T00:26:16.627Z,8.33
2017-12-22T00:28:44.123Z,9.50
2017-12-22T00:31:12.401Z,8.43
2017-12-22T00:33:39.902Z,7.40
2017-12-22T00:36:07.409Z,10.03
2017-12-22T00:38:34.892Z,8.53
2017-12-22T00:41:02.487Z,9.50
2017-12-22T00:43:30.023Z,8.50
2017-12-22T00:46:03.332Z,9.03
2017-12-22T00:48:31.610Z,8.47
2017-12-22T00:50:59.909Z,10.13
2017-12-22T00:53:27.390Z,9.13
2017-12-22T00:55:54.941Z,8.43
2017-12-22T00:58:22.836Z,8.90
2017-12-22T01:00:50.360Z,9.07
2017-12-22T01:03:18.625Z,8.77
2017-12-22T01:05:46.891Z,8.87
2017-12-22T01:08:14.408Z,8.20
2017-12-22T01:10:41.929Z,7.80
2017-12-22T01:13:09.716Z,7.67
2017-12-22T01:15:44.049Z,8.00
2017-12-22T01:18:18.097Z,7.80
2017-12-22T01:20:45.600Z,8.60
2017-12-22T01:23:13.865Z,7.90
2017-12-22T01:25:41.406Z,8.87
2017-12-22T01:28:08.944Z,7.57
2017-12-22T01:30:36.822Z,6.27
2017-12-22T01:33:04.349Z,7.40
2017-12-22T01:35:32.637Z,8.00
2017-12-22T01:38:00.176Z,7.00
2017-12-22T01:40:27.667Z,9.47
2017-12-22T01:42:55.230Z,8.83
2017-12-22T01:45:22.858Z,8.03
2017-12-22T01:47:50.371Z,8.73
2017-12-22T01:50:18.724Z,8.20
2017-12-22T01:52:46.982Z,8.80
2017-12-22T01:55:14.765Z,8.50
2017-12-22T01:57:42.438Z,8.63
2017-12-22T02:00:09.955Z,8.93
2017-12-22T02:02:38.333Z,8.90
2017-12-22T02:05:05.829Z,7.70
2017-12-22T02:07:33.341Z,7.63
2017-12-22T02:10:01.416Z,8.13
2017-12-22T02:12:28.968Z,8.40
2017-12-22T02:14:56.490Z,8.33
2017-12-22T02:17:25.451Z,8.30
2017-12-22T02:19:53.058Z,9.20
2017-12-22T02:22:20.572Z,8.73
2017-12-22T02:24:48.077Z,8.33
2017-12-22T02:27:16.380Z,9.43
2017-12-22T02:29:44.625Z,8.00
2017-12-22T02:32:12.378Z,9.30
2017-12-22T02:34:39.869Z,8.80
2017-12-22T02:37:07.373Z,8.10
2017-12-22T02:39:35.644Z,8.50
2017-12-22T02:42:05.118Z,9.07
2017-12-22T02:44:32.622Z,9.13
2017-12-22T02:47:00.825Z,8.47
2017-12-22T02:49:28.322Z,8.53
2017-12-22T02:51:55.815Z,9.70
2017-12-22T02:54:23.321Z,9.20
2017-12-22T02:56:52.076Z,7.57
2017-12-22T02:59:20.338Z,9.40
2017-12-22T03:01:47.851Z,7.70
2017-12-22T03:04:15.377Z,8.73
2017-12-22T03:06:43.676Z,9.27
2017-12-22T03:09:11.936Z,9.43
2017-12-22T03:11:40.196Z,8.10
2017-12-22T03:14:07.801Z,8.47
2017-12-22T03:16:36.068Z,8.67
2017-12-22T03:19:04.328Z,9.13
2017-12-22T03:21:32.129Z,9.53
2017-12-22T03:24:00.465Z,8.53
2017-12-22T03:26:28.912Z,9.30
2017-12-22T03:28:56.475Z,9.37
2017-12-22T03:31:23.993Z,10.13
2017-12-22T03:33:51.694Z,10.13
2017-12-22T03:36:19.223Z,9.63
2017-12-22T03:38:46.700Z,9.50
2017-12-22T03:41:15.033Z,9.13
2017-12-22T03:43:42.573Z,9.33
2017-12-22T03:46:12.676Z,9.17
2017-12-22T03:48:40.973Z,9.40
2017-12-22T03:51:08.526Z,10.40
2017-12-22T03:53:36.812Z,9.27
2017-12-22T03:56:05.076Z,9.70
2017-12-22T03:58:33.664Z,8.73
2017-12-22T04:01:01.946Z,8.87
2017-12-22T04:03:29.437Z,8.63
2017-12-22T04:05:57.852Z,9.00
2017-12-22T04:08:27.202Z,9.70
2017-12-22T04:10:55.813Z,8.23
2017-12-22T04:13:23.397Z,9.63
2017-12-22T04:15:50.924Z,9.97
2017-12-22T04:18:19.250Z,9.37
2017-12-22T04:20:46.729Z,9.50
2017-12-22T04:23:14.254Z,10.80
2017-12-22T04:25:41.786Z,9.37
2017-12-22T04:28:10.056Z,11.57
2017-12-22T04:30:39.074Z,10.73
2017-12-22T04:33:07.324Z,10.20
2017-12-22T04:35:34.901Z,8.67
2017-12-22T04:38:03.323Z,10.53
2017-12-22T04:40:30.825Z,8.73
2017-12-22T04:42:58.453Z,8.30
2017-12-22T04:45:25.958Z,9.73
2017-12-22T04:47:53.605Z,9.00
2017-12-22T04:50:22.192Z,8.90
2017-12-22T04:52:49.700Z,8.03
2017-12-22T04:55:17.280Z,9.80
2017-12-22T04:57:45.543Z,8.60
2017-12-22T05:00:13.855Z,8.50
2017-12-22T05:02:41.350Z,7.97
2017-12-22T05:05:08.886Z,9.17
2017-12-22T05:07:36.415Z,9.30
2017-12-22T05:10:03.906Z,7.90
2017-12-22T05:12:31.758Z,8.43
2017-12-22T05:15:00.028Z,7.50
2017-12-22T05:17:27.501Z,7.70
2017-12-22T05:19:55.767Z,8.07
2017-12-22T05:22:23.271Z,6.80
2017-12-22T05:24:50.790Z,7.50
2017-12-22T05:27:18.421Z,8.20
2017-12-22T05:29:46.083Z,8.33
2017-12-22T05:32:13.577Z,8.00
2017-12-22T05:34:41.042Z,7.50
2017-12-22T05:37:08.793Z,8.50
2017-12-22T05:39:36.342Z,7.17
2017-12-22T05:42:03.909Z,6.67
2017-12-22T05:44:31.610Z,7.50
2017-12-22T05:46:59.192Z,6.37
2017-12-22T05:49:27.508Z,6.90
2017-12-22T05:51:55.000Z,7.13
2017-12-22T05:54:22.525Z,7.17
2017-12-22T05:56:50.010Z,8.17
2017-12-22T05:59:17.500Z,7.23
2017-12-22T06:01:45.033Z,7.73
2017-12-22T06:04:12.606Z,6.90
2017-12-22T06:06:40.098Z,7.37
2017-12-22T06:09:07.611Z,6.53
2017-12-22T06:11:35.101Z,7.47
2017-12-22T06:14:02.977Z,7.43
2017-12-22T06:16:30.472Z,7.37
2017-12-22T06:18:58.757Z,7.20
2017-12-22T06:21:27.020Z,6.33
2017-12-22T06:23:54.617Z,7.47
2017-12-22T06:26:22.120Z,6.60
2017-12-22T06:28:49.630Z,6.90
2017-12-22T06:31:17.881Z,7.10
2017-12-22T06:33:45.401Z,7.40
2017-12-22T06:36:14.165Z,7.87
2017-12-22T06:38:42.424Z,7.17
2017-12-22T06:41:09.952Z,8.03
2017-12-22T06:43:37.650Z,8.10
2017-12-22T06:46:05.171Z,8.43
2017-12-22T06:48:32.669Z,7.00
2017-12-22T06:51:00.153Z,8.20
2017-12-22T06:53:28.430Z,7.10
2017-12-22T06:55:56.401Z,8.27
2017-12-22T06:58:23.917Z,7.93
2017-12-22T07:00:52.372Z,7.60
2017-12-22T07:03:20.665Z,8.67
2017-12-22T07:05:48.221Z,7.93
2017-12-22T07:08:16.534Z,8.27
2017-12-22T07:10:44.559Z,7.97
2017-12-22T07:13:12.342Z,8.40
2017-12-22T07:15:40.646Z,7.03
2017-12-22T07:18:08.183Z,8.97
2017-12-22T07:20:36.475Z,7.47
2017-12-22T07:23:04.777Z,6.83
2017-12-22T07:25:32.280Z,7.93
2017-12-22T07:27:59.893Z,7.73
2017-12-22T07:30:27.455Z,7.70
2017-12-22T07:32:54.971Z,7.43
2017-12-22T07:35:22.484Z,8.23
2017-12-22T07:37:50.008Z,7.70
2017-12-22T07:40:18.056Z,7.60
2017-12-22T07:42:45.570Z,7.93
2017-12-22T07:45:13.889Z,8.37
2017-12-22T07:47:41.408Z,8.03
2017-12-22T07:50:09.723Z,8.00
2017-12-22T07:52:37.232Z,8.20
2017-12-22T07:55:04.700Z,7.40
2017-12-22T07:57:32.846Z,8.73
2017-12-22T08:00:00.354Z,7.27
2017-12-22T08:02:28.674Z,7.67
2017-12-22T08:04:57.262Z,6.33
2017-12-22T08:07:24.996Z,6.17
2017-12-22T08:09:53.280Z,6.63
2017-12-22T08:12:21.519Z,7.17
2017-12-22T08:14:49.052Z,7.20
2017-12-22T08:17:16.537Z,7.67
2017-12-22T08:19:44.053Z,6.60
2017-12-22T08:22:12.317Z,6.53
2017-12-22T08:24:39.907Z,6.70
2017-12-22T08:27:08.149Z,7.03
2017-12-22T08:29:35.646Z,6.57
2017-12-22T08:32:03.971Z,6.97
2017-12-22T08:34:31.486Z,7.37
2017-12-22T08:36:59.801Z,6.47
2017-12-22T08:39:27.462Z,6.50
2017-12-22T08:41:54.959Z,6.70
2017-12-22T08:44:23.297Z,6.80
2017-12-22T08:46:50.791Z,7.50
2017-12-22T08:49:18.329Z,7.27
2017-12-22T08:51:46.611Z,6.77
2017-12-22T08:54:14.112Z,7.53
2017-12-22T08:56:41.602Z,7.30
2017-12-22T08:59:09.204Z,6.77
2017-12-22T09:01:37.402Z,8.80
2017-12-22T09:04:05.114Z,6.63
2017-12-22T09:06:32.718Z,7.50
2017-12-22T09:09:00.446Z,6.43
2017-12-22T09:11:29.432Z,7.50
2017-12-22T09:13:56.924Z,7.20
2017-12-22T09:16:24.436Z,7.20
2017-12-22T09:18:51.913Z,6.90
2017-12-22T09:21:19.506Z,7.50
2017-12-22T09:23:47.749Z,6.80
2017-12-22T09:26:16.056Z,6.90
2017-12-22T09:28:44.324Z,6.87
2017-12-22T09:31:12.057Z,6.73
2017-12-22T09:33:39.939Z,7.03
2017-12-22T09:36:07.474Z,7.37
2017-12-22T09:38:34.941Z,7.40
2017-12-22T09:41:02.537Z,5.73
2017-12-22T09:43:30.034Z,6.33
2017-12-22T09:45:57.554Z,5.80
2017-12-22T09:48:25.100Z,6.43
2017-12-22T09:50:52.633Z,6.00
2017-12-22T09:53:21.077Z,6.00
2017-12-22T09:55:49.817Z,5.27
2017-12-22T09:58:18.696Z,6.23
2017-12-22T10:00:46.168Z,5.93
2017-12-22T10:03:14.427Z,5.57
2017-12-22T10:05:42.002Z,6.73
2017-12-22T10:08:09.498Z,7.00
2017-12-22T10:10:37.623Z,5.53
2017-12-22T10:13:05.137Z,8.40
2017-12-22T10:15:32.644Z,5.87
2017-12-22T10:18:00.140Z,6.97
2017-12-22T10:20:28.428Z,5.77
2017-12-22T10:22:55.934Z,5.60
2017-12-22T10:25:23.503Z,5.30
2017-12-22T10:27:51.121Z,5.57
2017-12-22T10:30:18.571Z,7.57
2017-12-22T10:32:47.169Z,6.17
2017-12-22T10:35:15.474Z,5.70
2017-12-22T10:37:42.976Z,5.80
2017-12-22T10:40:10.497Z,6.30
2017-12-22T10:42:38.054Z,5.17
2017-12-22T10:45:05.626Z,5.30
2017-12-22T10:47:33.129Z,6.30
2017-12-22T10:50:00.645Z,5.73
2017-12-22T10:52:28.150Z,5.47
2017-12-22T10:54:56.824Z,6.63
2017-12-22T10:57:24.324Z,7.30
2017-12-22T10:59:51.811Z,6.13
2017-12-22T11:02:20.076Z,5.03
2017-12-22T11:04:47.589Z,7.30
2017-12-22T11:07:15.075Z,7.47
2017-12-22T11:09:42.562Z,5.67
2017-12-22T11:12:13.010Z,5.77
2017-12-22T11:14:41.393Z,5.40
2017-12-22T11:17:10.929Z,5.77
2017-12-22T11:19:39.165Z,4.50
2017-12-22T11:22:06.825Z,5.90
2017-12-22T11:24:34.469Z,4.60
2017-12-22T11:27:02.053Z,5.57
2017-12-22T11:29:29.570Z,6.10
2017-12-22T11:31:57.152Z,4.90
2017-12-22T11:34:24.649Z,4.80
2017-12-22T11:36:52.269Z,4.77
2017-12-22T11:39:19.764Z,4.43
2017-12-22T11:41:47.280Z,5.30
2017-12-22T11:44:15.132Z,4.83
2017-12-22T11:46:43.435Z,5.53
2017-12-22T11:49:12.034Z,4.93
2017-12-22T11:51:39.870Z,4.47
2017-12-22T11:54:08.318Z,4.90
2017-12-22T11:56:36.332Z,5.50
2017-12-22T11:59:04.665Z,4.13
2017-12-22T12:01:32.977Z,5.33
2017-12-22T12:04:01.639Z,4.83
2017-12-22T12:06:29.920Z,4.47
2017-12-22T12:08:57.425Z,4.23
2017-12-22T12:11:24.922Z,4.37
2017-12-22T12:13:52.488Z,5.87
2017-12-22T12:16:21.412Z,6.27
2017-12-22T12:18:48.923Z,4.07
2017-12-22T12:21:18.061Z,5.03
2017-12-22T12:23:46.312Z,5.60
2017-12-22T12:26:14.004Z,4.67
2017-12-22T12:28:41.540Z,5.03
2017-12-22T12:31:09.017Z,4.20
2017-12-22T12:33:36.509Z,4.80
2017-12-22T12:36:04.018Z,6.37
2017-12-22T12:38:32.303Z,4.90
2017-12-22T12:41:00.666Z,4.83
2017-12-22T12:43:28.204Z,5.00
2017-12-22T12:45:55.963Z,4.70
2017-12-22T12:48:23.576Z,4.77
2017-12-22T12:50:51.858Z,4.60
2017-12-22T12:53:20.118Z,4.67
2017-12-22T12:55:48.412Z,6.23
2017-12-22T12:58:16.677Z,4.30
2017-12-22T13:00:44.740Z,4.00
2017-12-22T13:03:13.470Z,5.13
2017-12-22T13:05:41.363Z,4.47
2017-12-22T13:08:08.917Z,4.30
2017-12-22T13:10:36.521Z,4.13
2017-12-22T13:13:04.955Z,3.90
2017-12-22T13:15:33.225Z,5.20
2017-12-22T13:18:00.772Z,4.10
2017-12-22T13:20:28.253Z,4.50
2017-12-22T13:22:55.970Z,4.53
2017-12-22T13:25:23.489Z,5.33
2017-12-22T13:27:51.769Z,4.10
2017-12-22T13:30:20.453Z,4.87
2017-12-22T13:32:48.735Z,5.13
2017-12-22T13:35:17.053Z,4.60
2017-12-22T13:37:44.549Z,3.60
2017-12-22T13:40:12.089Z,4.60
2017-12-22T13:42:40.535Z,4.17
2017-12-22T13:45:08.813Z,4.30
2017-12-22T13:47:37.072Z,4.07
2017-12-22T13:50:04.588Z,3.93
2017-12-22T13:52:32.074Z,3.60
2017-12-22T13:54:59.628Z,3.93
2017-12-22T13:57:27.338Z,3.60
2017-12-22T13:59:55.624Z,3.73
2017-12-22T14:02:23.880Z,3.80
2017-12-22T14:04:51.491Z,3.33
2017-12-22T14:07:18.986Z,4.17
2017-12-22T14:09:46.548Z,3.73
2017-12-22T14:12:14.193Z,3.73
2017-12-22T14:14:41.731Z,3.77
2017-12-22T14:17:09.968Z,3.90
2017-12-22T14:19:38.509Z,4.37
2017-12-22T14:22:06.018Z,4.40
2017-12-22T14:24:33.510Z,3.90
2017-12-22T14:27:01.125Z,3.50
2017-12-22T14:29:28.635Z,3.37
2017-12-22T14:31:56.206Z,3.30
2017-12-22T14:34:24.500Z,3.37
2017-12-22T14:36:52.758Z,4.03
2017-12-22T14:39:20.850Z,3.30
2017-12-22T14:41:48.314Z,2.90
2017-12-22T14:44:16.593Z,3.07
2017-12-22T14:46:44.856Z,3.47
2017-12-22T14:49:13.492Z,4.27
2017-12-22T14:51:41.099Z,4.10
2017-12-22T14:54:10.598Z,4.07
2017-12-22T14:56:38.138Z,2.87
2017-12-22T14:59:05.686Z,3.10
2017-12-22T15:01:33.362Z,3.50
2017-12-22T15:04:00.861Z,2.73
2017-12-22T15:06:28.452Z,3.20
2017-12-22T15:08:55.939Z,3.83
2017-12-22T15:11:23.426Z,3.30
2017-12-22T15:13:50.908Z,4.47
2017-12-22T15:16:18.418Z,3.63
2017-12-22T15:18:46.686Z,3.97
2017-12-22T15:21:14.977Z,3.70
2017-12-22T15:23:43.262Z,2.70
2017-12-22T15:26:11.575Z,3.30
2017-12-22T15:28:39.058Z,2.83
2017-12-22T15:31:06.573Z,3.83
2017-12-22T15:33:34.107Z,3.20
2017-12-22T15:36:02.457Z,4.07
2017-12-22T15:38:29.981Z,3.93
2017-12-22T15:40:58.259Z,4.30
2017-12-22T15:43:26.521Z,3.20
2017-12-22T15:45:54.835Z,3.40
2017-12-22T15:48:22.366Z,4.20
2017-12-22T15:50:49.962Z,5.40
2017-12-22T15:53:17.458Z,4.70
2017-12-22T15:55:44.949Z,4.20
2017-12-22T15:58:12.445Z,4.27
2017-12-22T16:00:39.963Z,5.00
2017-12-22T16:03:07.487Z,4.70
2017-12-22T16:05:34.992Z,5.30
2017-12-22T16:08:02.495Z,4.67
2017-12-22T16:10:30.753Z,4.70
2017-12-22T16:12:59.058Z,5.40
2017-12-22T16:15:27.306Z,4.30
2017-12-22T16:17:54.841Z,4.00
2017-12-22T16:20:22.349Z,4.50
2017-12-22T16:22:49.862Z,4.03
2017-12-22T16:25:18.025Z,4.97
2017-12-22T16:27:45.537Z,5.20
2017-12-22T16:30:13.144Z,5.50
2017-12-22T16:32:40.651Z,3.93
2017-12-22T16:35:08.155Z,4.77
2017-12-22T16:37:36.418Z,4.80
2017-12-22T16:40:04.006Z,4.93
2017-12-22T16:42:32.317Z,5.17
2017-12-22T16:44:59.813Z,5.60
2017-12-22T16:47:27.310Z,4.33
2017-12-22T16:49:55.552Z,4.30
2017-12-22T16:52:23.162Z,5.33
2017-12-22T16:54:51.406Z,3.93
2017-12-22T16:57:18.940Z,4.93
2017-12-22T16:59:46.457Z,5.37
2017-12-22T17:02:13.984Z,4.73
2017-12-22T17:04:41.589Z,4.80
2017-12-22T17:07:09.836Z,5.80
2017-12-22T17:09:37.331Z,4.27
2017-12-22T17:12:05.632Z,4.60
2017-12-22T17:14:33.177Z,4.07
2017-12-22T17:17:01.444Z,3.90
2017-12-22T17:19:30.178Z,4.00
2017-12-22T17:21:58.474Z,4.63
2017-12-22T17:24:25.963Z,7.00
2017-12-22T17:26:53.462Z,4.67
2017-12-22T17:29:21.740Z,5.67
2017-12-22T17:31:50.011Z,5.50
2017-12-22T17:34:18.299Z,4.53
2017-12-22T17:36:46.569Z,5.97
2017-12-22T17:39:14.846Z,4.60
2017-12-22T17:41:43.169Z,5.00
2017-12-22T17:44:10.669Z,4.83
2017-12-22T17:46:38.146Z,4.90
2017-12-22T17:49:05.636Z,6.00
2017-12-22T17:51:33.188Z,6.70
2017-12-22T17:54:01.482Z,5.20
2017-12-22T17:56:29.021Z,6.70
2017-12-22T17:58:56.596Z,5.50
2017-12-22T18:01:24.857Z,6.00
2017-12-22T18:03:53.877Z,5.00
2017-12-22T18:06:22.169Z,7.00
2017-12-22T18:08:50.785Z,4.77
2017-12-22T18:11:18.253Z,4.33
2017-12-22T18:13:45.741Z,5.17
2017-12-22T18:16:13.349Z,7.30
2017-12-22T18:18:41.982Z,6.50
2017-12-22T18:21:09.474Z,5.30
2017-12-22T18:23:37.746Z,4.13
2017-12-22T18:26:05.239Z,5.70
2017-12-22T18:28:32.759Z,5.17
2017-12-22T18:31:00.272Z,6.00
2017-12-22T18:33:29.549Z,5.77
2017-12-22T18:35:57.043Z,6.20
2017-12-22T18:38:24.533Z,5.43
2017-12-22T18:40:52.074Z,6.23
2017-12-22T18:43:19.549Z,5.30
2017-12-22T18:45:47.036Z,5.13
2017-12-22T18:48:14.526Z,5.23
2017-12-22T18:50:42.818Z,6.23
2017-12-22T18:53:11.065Z,5.47
2017-12-22T18:55:38.560Z,5.87
2017-12-22T18:58:06.800Z,4.00
2017-12-22T19:00:34.321Z,4.80
2017-12-22T19:03:01.895Z,7.23
2017-12-22T19:05:29.434Z,5.80
2017-12-22T19:07:57.721Z,4.13
2017-12-22T19:10:25.997Z,4.57
2017-12-22T19:12:54.307Z,4.07
2017-12-22T19:15:21.805Z,5.13
2017-12-22T19:17:49.348Z,4.30
2017-12-22T19:20:16.838Z,4.03
2017-12-22T19:22:44.958Z,5.03
2017-12-22T19:25:12.512Z,4.40
2017-12-22T19:27:40.790Z,4.50
2017-12-22T19:30:09.062Z,4.23
2017-12-22T19:32:36.626Z,5.10
2017-12-22T19:35:04.886Z,6.57
2017-12-22T19:37:32.366Z,5.23
2017-12-22T19:40:00.673Z,5.20
2017-12-22T19:42:28.860Z,4.83
2017-12-22T19:44:56.362Z,4.97
2017-12-22T19:47:23.860Z,4.33
2017-12-22T19:49:52.134Z,4.87
2017-12-22T19:52:20.385Z,4.90
2017-12-22T19:54:47.908Z,6.40
2017-12-22T19:57:15.855Z,4.47
2017-12-22T19:59:44.555Z,6.03
2017-12-22T20:02:12.841Z,5.73
2017-12-22T20:04:40.333Z,4.67
2017-12-22T20:07:07.829Z,5.57
2017-12-22T20:09:35.434Z,6.17
2017-12-22T20:12:03.715Z,6.07
2017-12-22T20:14:31.257Z,6.03
2017-12-22T20:16:58.761Z,6.13
2017-12-22T20:19:26.289Z,6.83
2017-12-22T20:21:53.822Z,6.70
2017-12-22T20:24:21.338Z,6.70
2017-12-22T20:26:48.898Z,7.60
2017-12-22T20:29:16.376Z,5.73
2017-12-22T20:31:43.882Z,6.23
2017-12-22T20:34:11.368Z,5.70
2017-12-22T20:36:39.649Z,5.03
2017-12-22T20:39:07.913Z,5.60
2017-12-22T20:41:35.449Z,5.53
2017-12-22T20:44:02.941Z,5.83
2017-12-22T20:46:30.454Z,6.40
2017-12-22T20:48:58.242Z,7.10
2017-12-22T20:51:25.722Z,6.47
2017-12-22T20:53:53.335Z,5.40
2017-12-22T20:56:21.387Z,5.37
2017-12-22T20:58:50.088Z,5.27
2017-12-22T21:01:18.332Z,4.97
2017-12-22T21:03:45.958Z,5.00
2017-12-22T21:06:13.429Z,5.43
2017-12-22T21:08:40.980Z,4.63
2017-12-22T21:11:08.468Z,4.20
2017-12-22T21:13:36.424Z,5.40
2017-12-22T21:16:03.916Z,3.93
2017-12-22T21:18:31.447Z,5.90
2017-12-22T21:20:58.985Z,5.67
2017-12-22T21:23:27.249Z,5.43
2017-12-22T21:25:54.781Z,5.90
2017-12-22T21:28:22.264Z,5.50
2017-12-22T21:30:49.749Z,5.37
2017-12-22T21:33:18.016Z,6.17
2017-12-22T21:35:45.553Z,5.13
2017-12-22T21:38:13.087Z,5.53
2017-12-22T21:40:40.602Z,4.80
2017-12-22T21:43:08.082Z,5.10
2017-12-22T21:45:36.353Z,6.40
2017-12-22T21:48:03.843Z,4.43
2017-12-22T21:50:31.346Z,4.60
2017-12-22T21:52:58.894Z,5.30
2017-12-22T21:55:26.360Z,4.70
2017-12-22T21:57:53.869Z,5.30
2017-12-22T22:00:21.342Z,5.00
2017-12-22T22:02:49.945Z,4.97
2017-12-22T22:05:17.761Z,3.47
2017-12-22T22:07:45.257Z,4.23
2017-12-22T22:10:13.472Z,4.13
2017-12-22T22:12:41.741Z,4.50
2017-12-22T22:15:09.279Z,4.63
2017-12-22T22:17:38.449Z,4.57
2017-12-22T22:20:06.114Z,4.20
2017-12-22T22:22:33.612Z,3.93
2017-12-22T22:25:01.869Z,6.00
2017-12-22T22:27:29.368Z,4.27
2017-12-22T22:29:57.644Z,5.60
2017-12-22T22:32:25.901Z,4.27
2017-12-22T22:34:53.416Z,4.07
2017-12-22T22:37:20.925Z,4.00
2017-12-22T22:39:49.197Z,5.20
2017-12-22T22:42:16.710Z,4.90
2017-12-22T22:44:44.379Z,4.70
2017-12-22T22:47:11.940Z,4.00
2017-12-22T22:49:39.430Z,5.00
2017-12-22T22:52:06.975Z,5.10
2017-12-22T22:54:34.490Z,4.80
2017-12-22T22:57:01.997Z,5.17
2017-12-22T22:59:29.493Z,4.27
2017-12-22T23:01:56.990Z,4.40
2017-12-22T23:04:25.285Z,4.47
2017-12-22T23:06:53.562Z,5.83
2017-12-22T23:09:21.857Z,5.50
2017-12-22T23:11:50.131Z,3.77
2017-12-22T23:14:18.388Z,5.53
2017-12-22T23:16:45.874Z,5.20
2017-12-22T23:19:14.121Z,4.93
2017-12-22T23:21:41.605Z,5.20
2017-12-22T23:24:09.187Z,5.10
2017-12-22T23:26:37.444Z,5.00
2017-12-22T23:29:04.976Z,4.83
2017-12-22T23:31:44.593Z,6.20
2017-12-22T23:34:12.154Z,5.90
2017-12-22T23:36:39.656Z,5.00
2017-12-22T23:39:07.868Z,4.90
2017-12-22T23:41:36.145Z,5.30
2017-12-22T23:44:04.963Z,5.60
2017-12-22T23:46:32.498Z,5.60
2017-12-22T23:49:00.752Z,5.30
2017-12-22T23:51:28.252Z,6.00
2017-12-22T23:53:56.597Z,7.23
2017-12-22T23:56:24.103Z,6.87
2017-12-22T23:58:52.384Z,6.93
